Time;durP1;ratioP1;P1;durP2;ratioP2;P2;SDS_P1;SDS_P2;PMS_P1;PMS_P2;Temp;Humidity;BMP_temperature;BMP_pressure;BME280_temperature;BME280_humidity;BME280_pressure;Samples;Min_cycle;Max_cycle;Signal;HPM_P1;HPM_P2
2023/10/03 00:02:03;;;;;;;7.77;2.87;;;19.60;42.30;;;;;;4975532;28;20784;-49
2023/10/03 00:04:28;;;;;;;2.60;1.48;;;19.50;42.40;;;;;;4974595;28;20773;-51
2023/10/03 00:06:54;;;;;;;2.37;2.17;;;19.50;42.50;;;;;;4974745;28;20164;-53
2023/10/03 00:09:20;;;;;;;4.50;2.87;;;19.50;42.50;;;;;;4974667;28;20196;-53
2023/10/03 00:11:46;;;;;;;9.60;3.27;;;19.40;43.00;;;;;;4974040;28;20263;-53
2023/10/03 00:14:11;;;;;;;4.60;3.37;;;19.30;42.70;;;;;;4974542;28;20187;-52
2023/10/03 00:16:39;;;;;;;9.87;2.53;;;19.30;42.90;;;;;;4973475;28;20546;-50
2023/10/03 00:19:05;;;;;;;5.60;3.50;;;19.30;42.30;;;;;;4974317;28;20981;-49
2023/10/03 00:21:31;;;;;;;8.07;3.67;;;19.30;42.40;;;;;;4974470;28;20408;-51
2023/10/03 00:23:56;;;;;;;2.23;2.03;;;19.20;42.40;;;;;;4973059;28;20475;-50
2023/10/03 00:26:22;;;;;;;2.83;2.40;;;19.20;42.60;;;;;;4974408;28;20215;-48
2023/10/03 00:28:51;;;;;;;5.80;2.30;;;19.10;42.80;;;;;;4974318;28;20662;-51
2023/10/03 00:31:17;;;;;;;2.15;1.95;;;19.20;42.50;;;;;;4974350;28;20543;-52
2023/10/03 00:33:43;;;;;;;5.33;2.00;;;19.10;42.70;;;;;;4974026;28;20187;-49
2023/10/03 00:36:24;;;;;;;4.23;2.37;;;19.10;42.60;;;;;;4974225;28;20471;-51
2023/10/03 00:38:50;;;;;;;8.48;3.75;;;19.10;42.50;;;;;;4974027;28;20776;-51
2023/10/03 00:41:19;;;;;;;4.93;2.60;;;19.10;42.60;;;;;;4974074;28;20202;-50
2023/10/03 00:43:52;;;;;;;10.50;3.33;;;19.00;42.80;;;;;;4974007;28;20172;-50
2023/10/03 00:46:18;;;;;;;2.22;1.60;;;19.00;42.50;;;;;;4973935;28;20407;-50
2023/10/03 00:48:47;;;;;;;6.95;3.33;;;19.00;42.80;;;;;;4973957;28;20210;-53
2023/10/03 00:51:14;;;;;;;4.13;2.88;;;19.00;42.80;;;;;;4974041;28;20198;-49
2023/10/03 00:53:43;;;;;;;4.43;2.58;;;19.00;42.70;;;;;;4973877;28;20179;-50
2023/10/03 00:56:11;;;;;;;6.68;2.25;;;18.90;42.70;;;;;;4973912;28;20172;-51
2023/10/03 00:58:37;;;;;;;3.35;2.30;;;18.90;42.80;;;;;;4973833;28;20212;-48
2023/10/03 01:01:03;;;;;;;5.40;2.85;;;18.90;42.90;;;;;;4974113;28;20673;-51
2023/10/03 01:03:37;;;;;;;4.20;2.43;;;18.80;42.90;;;;;;4974211;28;20184;-50
2023/10/03 01:06:12;;;;;;;3.38;3.08;;;18.80;42.80;;;;;;4972811;28;20415;-50
2023/10/03 01:08:39;;;;;;;6.45;3.15;;;18.80;43.00;;;;;;4973656;28;20234;-49
2023/10/03 01:11:07;;;;;;;3.85;2.20;;;18.80;43.20;;;;;;4973491;28;20179;-48
2023/10/03 01:13:34;;;;;;;3.90;3.50;;;18.70;42.90;;;;;;4973550;28;20176;-50
2023/10/03 01:16:03;;;;;;;5.07;2.05;;;18.70;43.10;;;;;;4973657;28;20778;-49
2023/10/03 01:18:31;;;;;;;5.15;2.70;;;18.70;42.60;;;;;;4973471;28;20277;-50
2023/10/03 01:21:04;;;;;;;6.38;2.75;;;18.70;42.50;;;;;;4973434;28;20308;-48
2023/10/03 01:23:34;;;;;;;4.05;2.15;;;18.70;42.30;;;;;;4973510;28;20807;-51
2023/10/03 01:26:00;;;;;;;9.32;5.03;;;18.60;42.60;;;;;;4973712;28;20183;-53
2023/10/03 01:28:26;;;;;;;3.80;1.70;;;18.50;43.00;;;;;;4974447;28;20570;-50
2023/10/03 01:30:52;;;;;;;3.80;1.80;;;18.50;43.00;;;;;;4974096;28;20415;-50
2023/10/03 01:33:18;;;;;;;7.47;2.90;;;18.50;43.30;;;;;;4974340;28;20186;-50
2023/10/03 01:35:44;;;;;;;8.07;3.83;;;18.50;43.40;;;;;;4974630;28;20176;-52
2023/10/03 01:38:09;;;;;;;6.53;2.60;;;18.50;43.30;;;;;;4974753;28;20207;-51
2023/10/03 01:40:35;;;;;;;6.63;3.50;;;18.50;44.20;;;;;;4974115;28;20171;-52
2023/10/03 01:43:01;;;;;;;3.90;2.00;;;18.40;43.80;;;;;;4974030;28;20247;-52
2023/10/03 01:45:32;;;;;;;2.50;1.70;;;18.40;44.00;;;;;;4974345;28;20419;-52
2023/10/03 01:48:04;;;;;;;1.92;1.52;;;18.40;43.80;;;;;;4973998;28;20846;-50
2023/10/03 01:50:39;;;;;;;3.13;2.10;;;18.40;43.60;;;;;;4974487;28;20254;-52
2023/10/03 01:53:08;;;;;;;8.95;2.35;;;18.30;43.90;;;;;;4973657;28;20179;-52
2023/10/03 01:55:34;;;;;;;4.60;1.65;;;18.30;43.80;;;;;;4973355;28;20176;-49
2023/10/03 01:58:00;;;;;;;7.18;2.28;;;18.30;43.70;;;;;;4973060;28;20222;-49
2023/10/03 02:00:26;;;;;;;3.27;1.80;;;18.30;43.90;;;;;;4973125;28;20172;-52
2023/10/03 02:02:57;;;;;;;6.18;2.47;;;18.20;43.80;;;;;;4972930;28;20448;-49
2023/10/03 02:05:25;;;;;;;4.82;2.50;;;18.20;43.70;;;;;;4972944;28;20569;-51
2023/10/03 02:08:15;;;;;;;3.25;2.15;;;18.20;44.00;;;;;;4972999;28;20865;-53
2023/10/03 02:10:40;;;;;;;5.65;2.35;;;18.20;43.90;;;;;;4972802;28;20211;-50
2023/10/03 02:13:14;;;;;;;5.20;3.00;;;18.10;44.00;;;;;;4972794;28;20672;-49
2023/10/03 02:15:44;;;;;;;265.25;29.25;;;18.10;44.30;;;;;;4972994;28;20226;-52
2023/10/03 02:18:14;;;;;;;8.02;4.13;;;18.10;43.70;;;;;;4973319;28;20222;-50
2023/10/03 02:20:59;;;;;;;2.47;1.65;;;18.10;44.70;;;;;;4973321;28;20304;-49
2023/10/03 02:23:26;;;;;;;3.60;2.13;;;18.10;44.60;;;;;;4973453;28;20594;-52
2023/10/03 02:25:57;;;;;;;5.78;2.78;;;18.10;44.30;;;;;;4972950;28;20190;-49
2023/10/03 02:28:26;;;;;;;3.35;3.05;;;18.10;44.20;;;;;;4973049;28;20208;-53
2023/10/03 02:30:52;;;;;;;8.18;2.42;;;18.10;44.20;;;;;;4972981;28;20263;-50
2023/10/03 02:33:21;;;;;;;5.53;2.67;;;18.10;43.80;;;;;;4973257;28;20222;-53
2023/10/03 02:35:47;;;;;;;8.90;3.05;;;18.10;43.70;;;;;;4976579;28;20180;-53
2023/10/03 02:38:24;;;;;;;3.53;2.10;;;18.10;43.70;;;;;;4976386;28;20216;-49
2023/10/03 02:40:52;;;;;;;2.50;1.70;;;18.00;44.20;;;;;;4976325;28;20179;-51
2023/10/03 02:43:18;;;;;;;4.85;2.30;;;18.00;44.00;;;;;;4976202;28;20175;-52
2023/10/03 02:45:44;;;;;;;4.93;2.50;;;18.00;44.40;;;;;;4976503;28;20168;-53
2023/10/03 02:48:14;;;;;;;4.20;2.83;;;18.00;44.70;;;;;;4976374;28;20439;-49
2023/10/03 02:50:47;;;;;;;2.58;1.70;;;18.00;44.70;;;;;;4976233;28;20180;-51
2023/10/03 02:53:17;;;;;;;6.65;2.85;;;18.00;44.40;;;;;;4975956;28;20650;-51
2023/10/03 02:55:43;;;;;;;1.60;1.40;;;18.10;44.40;;;;;;4976367;28;20277;-52
2023/10/03 02:58:10;;;;;;;5.45;2.67;;;18.10;44.30;;;;;;4975884;28;20644;-52
2023/10/03 03:00:39;;;;;;;2.40;2.00;;;18.10;44.10;;;;;;4976840;28;20227;-49
2023/10/03 03:03:11;;;;;;;2.95;2.50;;;18.10;44.10;;;;;;4976860;28;20172;-50
2023/10/03 03:05:38;;;;;;;2.92;2.00;;;18.10;44.40;;;;;;4976255;28;20172;-52
2023/10/03 03:10:57;;;;;;;4.50;2.25;;;18.20;44.70;;;;;;4975897;28;20199;-51
2023/10/03 03:13:31;;;;;;;4.45;3.17;;;18.30;44.90;;;;;;4975756;28;20199;-53
2023/10/03 03:16:00;;;;;;;3.55;2.38;;;18.30;44.70;;;;;;4975840;28;20179;-54
2023/10/03 03:18:31;;;;;;;6.32;1.60;;;18.40;45.00;;;;;;4975886;28;20223;-48
2023/10/03 03:21:01;;;;;;;5.20;2.03;;;18.40;44.80;;;;;;4975611;28;20647;-51
2023/10/03 03:23:30;;;;;;;5.38;2.30;;;18.50;45.00;;;;;;4975647;28;20299;-48
2023/10/03 03:28:51;;;;;;;3.08;2.42;;;18.50;45.20;;;;;;4975473;28;20204;-48
2023/10/03 03:31:21;;;;;;;4.00;2.70;;;18.60;44.90;;;;;;4976268;28;20164;-51
2023/10/03 03:33:57;;;;;;;2.80;1.67;;;18.60;44.80;;;;;;4975365;28;20191;-51
2023/10/03 03:36:29;;;;;;;14.45;4.65;;;18.60;44.70;;;;;;4975454;28;20554;-49
2023/10/03 03:38:58;;;;;;;3.22;2.33;;;18.60;44.70;;;;;;4975221;28;20319;-52
2023/10/03 03:41:24;;;;;;;3.78;1.15;;;18.60;44.80;;;;;;4975211;28;20172;-49
2023/10/03 03:43:50;;;;;;;3.65;2.50;;;18.60;44.90;;;;;;4975153;28;20500;-53
2023/10/03 03:46:19;;;;;;;6.30;2.10;;;18.60;44.80;;;;;;4974737;28;20183;-48
2023/10/03 03:48:46;;;;;;;1.40;0.85;;;18.60;45.00;;;;;;4975913;28;20196;-53
2023/10/03 03:51:14;;;;;;;4.22;1.65;;;18.60;44.90;;;;;;4975845;28;20184;-52
2023/10/03 03:53:42;;;;;;;10.57;2.75;;;18.50;44.90;;;;;;4975733;28;20650;-51
2023/10/03 03:56:08;;;;;;;6.78;2.65;;;18.50;45.10;;;;;;4976065;28;20641;-50
2023/10/03 03:58:37;;;;;;;4.03;2.90;;;18.50;44.90;;;;;;4975700;28;20239;-50
2023/10/03 04:01:11;;;;;;;3.22;2.47;;;18.40;44.80;;;;;;4975559;28;20188;-49
2023/10/03 04:03:38;;;;;;;6.60;2.88;;;18.30;44.70;;;;;;4974930;28;20262;-52
2023/10/03 04:06:05;;;;;;;3.38;2.60;;;18.20;44.70;;;;;;4975441;28;20180;-53
2023/10/03 04:08:31;;;;;;;3.80;2.28;;;18.20;44.60;;;;;;4975696;28;20212;-50
2023/10/03 04:10:58;;;;;;;7.70;2.47;;;18.20;44.60;;;;;;4974680;28;20223;-49
2023/10/03 04:13:24;;;;;;;7.97;2.38;;;18.20;44.50;;;;;;4974531;28;20411;-51
2023/10/03 04:15:50;;;;;;;3.83;2.40;;;18.10;44.70;;;;;;4975134;28;20196;-50
2023/10/03 04:18:17;;;;;;;4.40;2.42;;;18.10;44.40;;;;;;4975406;28;20208;-48
2023/10/03 04:20:46;;;;;;;6.22;2.72;;;18.10;44.80;;;;;;4975247;28;20239;-52
2023/10/03 04:23:14;;;;;;;9.85;2.53;;;18.10;44.80;;;;;;4975150;28;20180;-48
2023/10/03 04:25:40;;;;;;;4.60;2.35;;;18.10;44.50;;;;;;4975190;28;20180;-50
2023/10/03 04:28:07;;;;;;;4.73;2.63;;;18.00;44.40;;;;;;4975567;28;20241;-51
2023/10/03 04:30:33;;;;;;;2.83;1.83;;;17.90;44.50;;;;;;4975131;28;20412;-50
2023/10/03 04:32:59;;;;;;;3.78;2.50;;;17.90;44.50;;;;;;4975290;28;20180;-49
2023/10/03 04:35:25;;;;;;;4.80;2.53;;;17.80;44.50;;;;;;4974841;28;20222;-51
2023/10/03 04:37:52;;;;;;;4.95;2.10;;;17.70;44.70;;;;;;4974304;28;20235;-51
2023/10/03 04:40:23;;;;;;;3.20;1.90;;;17.80;44.40;;;;;;4974746;28;20180;-53
2023/10/03 04:42:49;;;;;;;2.65;1.70;;;17.70;44.50;;;;;;4974842;28;20656;-50
2023/10/03 04:45:18;;;;;;;4.22;2.80;;;17.70;45.00;;;;;;4974619;28;20194;-49
2023/10/03 04:47:44;;;;;;;8.85;3.78;;;17.70;45.10;;;;;;4974798;28;20195;-52
2023/10/03 04:50:11;;;;;;;3.85;1.58;;;17.70;45.20;;;;;;4975067;28;20218;-51
2023/10/03 04:52:41;;;;;;;2.10;1.80;;;17.60;44.80;;;;;;4975240;28;20186;-49
2023/10/03 04:55:07;;;;;;;2.10;1.30;;;17.70;45.00;;;;;;4975117;28;20186;-51
2023/10/03 04:57:34;;;;;;;3.70;2.25;;;17.60;45.10;;;;;;4974459;28;20698;-49
2023/10/03 05:00:00;;;;;;;2.63;1.95;;;17.60;45.00;;;;;;4974815;28;20191;-49
2023/10/03 05:02:27;;;;;;;2.33;1.53;;;17.60;44.90;;;;;;4974790;28;20168;-53
2023/10/03 05:04:54;;;;;;;4.30;2.03;;;17.50;44.80;;;;;;4974255;28;20403;-53
2023/10/03 05:07:19;;;;;;;3.42;3.08;;;17.50;44.70;;;;;;4974634;28;20250;-53
2023/10/03 05:09:45;;;;;;;1.93;1.60;;;17.50;45.00;;;;;;4974643;28;20674;-50
2023/10/03 05:12:12;;;;;;;7.23;2.27;;;17.50;45.10;;;;;;4974905;28;20218;-51
2023/10/03 05:14:40;;;;;;;8.15;2.38;;;17.50;44.90;;;;;;4974565;28;20179;-51
2023/10/03 05:17:07;;;;;;;2.30;1.67;;;17.50;45.20;;;;;;4973764;28;20187;-53
2023/10/03 05:19:32;;;;;;;1.85;1.25;;;17.50;45.20;;;;;;4973961;28;20208;-54
2023/10/03 05:21:58;;;;;;;2.07;1.80;;;17.40;45.30;;;;;;4974662;28;20176;-49
2023/10/03 05:24:25;;;;;;;1.70;1.13;;;17.40;45.10;;;;;;4973501;28;20174;-53
2023/10/03 05:26:51;;;;;;;2.10;1.77;;;17.40;45.30;;;;;;4974053;28;20654;-52
2023/10/03 05:29:18;;;;;;;5.32;2.45;;;17.40;45.80;;;;;;4973381;28;20283;-51
2023/10/03 05:31:44;;;;;;;1.55;1.27;;;17.40;45.10;;;;;;4973523;28;20262;-55
2023/10/03 05:34:11;;;;;;;6.88;3.75;;;17.50;45.30;;;;;;4973859;28;20193;-55
2023/10/03 05:36:38;;;;;;;3.50;2.25;;;17.50;45.30;;;;;;4973935;28;20187;-53
2023/10/03 05:39:11;;;;;;;3.80;2.70;;;17.60;45.80;;;;;;4973578;28;20846;-51
2023/10/03 05:41:41;;;;;;;3.85;2.03;;;17.70;45.70;;;;;;4973486;28;20587;-53
2023/10/03 05:44:11;;;;;;;2.33;2.05;;;17.70;45.80;;;;;;4972915;28;20259;-51
2023/10/03 05:46:41;;;;;;;11.73;3.40;;;17.90;46.00;;;;;;4973698;28;20176;-56
2023/10/03 05:49:06;;;;;;;6.45;4.15;;;18.00;46.10;;;;;;4973822;28;20196;-51
2023/10/03 05:51:35;;;;;;;6.50;2.23;;;18.20;46.90;;;;;;4973661;28;20179;-53
2023/10/03 05:54:05;;;;;;;2.30;1.60;;;18.40;46.00;;;;;;4973502;28;20532;-55
2023/10/03 05:56:31;;;;;;;5.10;2.60;;;18.50;46.00;;;;;;4973785;28;20191;-52
2023/10/03 05:59:00;;;;;;;6.30;3.00;;;18.60;45.80;;;;;;4972973;28;20215;-52
2023/10/03 06:01:26;;;;;;;1.92;1.45;;;18.80;45.80;;;;;;4973332;28;20400;-54
2023/10/03 06:03:51;;;;;;;4.57;1.70;;;19.00;45.60;;;;;;4973415;28;20180;-51
2023/10/03 06:06:17;;;;;;;3.90;2.30;;;19.20;45.50;;;;;;4973349;28;20172;-51
2023/10/03 06:08:48;;;;;;;7.33;2.53;;;19.40;45.80;;;;;;4974260;28;20195;-56
2023/10/03 06:11:14;;;;;;;2.63;2.20;;;19.50;45.10;;;;;;4977097;28;20422;-51
2023/10/03 06:13:44;;;;;;;3.97;1.33;;;19.70;44.90;;;;;;4976898;28;20195;-53
2023/10/03 06:16:14;;;;;;;6.15;2.70;;;19.80;44.60;;;;;;4977197;28;20774;-54
2023/10/03 06:18:41;;;;;;;3.30;2.08;;;20.00;44.80;;;;;;4977158;28;20212;-50
2023/10/03 06:21:08;;;;;;;16.65;3.55;;;20.20;43.70;;;;;;4976876;28;20172;-53
2023/10/03 06:23:35;;;;;;;16.67;2.50;;;20.20;44.30;;;;;;4976767;28;20178;-51
2023/10/03 06:26:01;;;;;;;4.28;1.83;;;20.30;44.20;;;;;;4976555;28;20184;-52
2023/10/03 06:28:28;;;;;;;12.68;3.80;;;20.40;43.60;;;;;;4976949;28;20578;-54
2023/10/03 06:30:55;;;;;;;6.60;1.90;;;20.40;44.20;;;;;;4976987;28;20180;-52
2023/10/03 06:33:21;;;;;;;9.50;2.58;;;20.60;43.40;;;;;;4976657;28;20574;-51
2023/10/03 06:35:50;;;;;;;9.23;1.95;;;20.70;43.90;;;;;;4976717;28;20183;-54
2023/10/03 06:38:17;;;;;;;11.73;2.85;;;20.80;43.50;;;;;;4976457;28;20219;-54
2023/10/03 06:40:43;;;;;;;10.55;3.08;;;20.90;43.30;;;;;;4976923;28;20170;-51
2023/10/03 06:43:09;;;;;;;10.40;2.80;;;21.00;43.60;;;;;;4976594;28;20259;-51
2023/10/03 06:45:35;;;;;;;13.53;4.10;;;21.10;43.40;;;;;;4976721;28;20207;-55
2023/10/03 06:48:04;;;;;;;14.27;2.60;;;;;;;;;;4976377;28;20196;-53
2023/10/03 06:50:32;;;;;;;10.93;3.13;;;21.40;42.80;;;;;;4976544;28;20184;-50
2023/10/03 06:52:59;;;;;;;12.57;2.97;;;21.50;42.80;;;;;;4975930;28;20176;-55
2023/10/03 06:55:25;;;;;;;16.33;3.08;;;21.60;42.20;;;;;;4976573;28;20226;-52
2023/10/03 06:57:50;;;;;;;11.83;2.63;;;21.80;42.00;;;;;;4976527;28;20710;-54
2023/10/03 07:00:17;;;;;;;16.07;3.77;;;21.80;41.50;;;;;;4976082;28;20498;-52
2023/10/03 07:02:44;;;;;;;16.60;3.67;;;22.00;41.50;;;;;;4975857;28;20728;-51
2023/10/03 07:05:11;;;;;;;10.38;2.85;;;22.00;40.60;;;;;;4975950;28;20806;-54
2023/10/03 07:07:37;;;;;;;11.87;3.60;;;22.10;40.90;;;;;;4975771;28;20180;-54
2023/10/03 07:10:04;;;;;;;9.33;2.60;;;22.20;40.60;;;;;;4976160;28;20422;-52
2023/10/03 07:12:30;;;;;;;14.43;4.78;;;22.30;40.40;;;;;;4975790;28;20180;-51
2023/10/03 07:14:56;;;;;;;17.70;3.27;;;22.50;40.40;;;;;;4976346;28;20172;-54
2023/10/03 07:17:23;;;;;;;7.67;4.87;;;22.70;40.60;;;;;;4975779;28;21143;-51
2023/10/03 07:19:49;;;;;;;15.77;3.77;;;22.80;40.40;;;;;;4975373;28;20547;-54
2023/10/03 07:22:15;;;;;;;8.53;2.27;;;22.80;40.60;;;;;;4975472;28;20502;-51
2023/10/03 07:24:41;;;;;;;7.30;1.67;;;23.10;40.10;;;;;;4975517;28;20404;-54
2023/10/03 07:27:07;;;;;;;9.17;2.07;;;23.30;40.20;;;;;;4975384;28;20427;-50
2023/10/03 07:29:36;;;;;;;10.00;1.63;;;23.40;39.10;;;;;;4975424;28;20250;-51
2023/10/03 07:32:03;;;;;;;8.93;1.83;;;;;;;;;;4975421;28;20426;-56
2023/10/03 07:34:29;;;;;;;20.37;3.67;;;;;;;;;;4975156;28;20458;-53
2023/10/03 07:36:57;;;;;;;14.13;2.60;;;23.80;38.10;;;;;;4975610;28;20399;-51
2023/10/03 07:39:25;;;;;;;6.87;2.50;;;23.90;38.50;;;;;;4975264;28;20455;-55
2023/10/03 07:41:51;;;;;;;7.00;3.43;;;23.90;39.10;;;;;;4975196;28;20411;-53
2023/10/03 07:44:18;;;;;;;4.67;2.90;;;23.90;39.40;;;;;;4975212;28;20400;-51
2023/10/03 07:46:44;;;;;;;6.30;2.87;;;23.90;38.10;;;;;;4975413;28;20165;-54
2023/10/03 07:49:10;;;;;;;22.70;2.93;;;;;;;;;;4975155;28;20961;-52
2023/10/03 07:51:37;;;;;;;23.03;2.73;;;;;;;;;;4974249;28;20411;-51
2023/10/03 07:54:04;;;;;;;6.00;2.30;;;24.10;37.40;;;;;;4975006;28;20945;-52
2023/10/03 07:56:33;;;;;;;7.37;2.77;;;24.20;37.00;;;;;;4975162;28;20447;-55
2023/10/03 07:59:02;;;;;;;6.23;2.07;;;24.30;37.70;;;;;;4975111;28;20537;-51
2023/10/03 08:01:29;;;;;;;3.23;1.50;;;24.30;38.20;;;;;;4974975;28;20418;-52
2023/10/03 08:03:57;;;;;;;16.77;2.77;;;24.60;36.10;;;;;;4974742;28;20465;-54
2023/10/03 08:06:25;;;;;;;24.13;3.00;;;24.70;36.80;;;;;;4975066;28;20473;-52
2023/10/03 08:09:00;;;;;;;7.33;2.67;;;24.70;36.70;;;;;;4974888;28;20440;-52
2023/10/03 08:11:31;;;;;;;4.03;2.23;;;24.80;37.50;;;;;;4974855;28;20897;-54
2023/10/03 08:14:07;;;;;;;2.70;2.07;;;25.00;37.70;;;;;;4974544;28;20499;-50
2023/10/03 08:16:34;;;;;;;3.43;2.03;;;25.10;37.50;;;;;;4974882;28;20422;-50
2023/10/03 08:19:01;;;;;;;3.27;2.43;;;25.20;37.40;;;;;;4974467;28;20591;-51
2023/10/03 08:21:28;;;;;;;2.33;1.83;;;25.30;36.90;;;;;;4974769;28;20817;-51
2023/10/03 08:23:58;;;;;;;4.53;1.53;;;25.40;36.30;;;;;;4974345;28;20462;-54
2023/10/03 08:26:25;;;;;;;3.43;1.77;;;25.40;36.00;;;;;;4974281;28;20433;-52
2023/10/03 08:28:59;;;;;;;15.13;4.63;;;25.50;35.60;;;;;;4974298;28;20467;-50
2023/10/03 08:31:28;;;;;;;7.83;3.33;;;25.60;36.00;;;;;;4973624;28;20423;-53
2023/10/03 08:33:57;;;;;;;8.73;3.53;;;25.70;35.70;;;;;;4974411;28;20419;-52
2023/10/03 08:36:27;;;;;;;6.07;2.30;;;25.80;35.60;;;;;;4974317;28;20522;-53
2023/10/03 08:39:04;;;;;;;4.47;3.33;;;26.00;35.90;;;;;;4974100;28;21072;-51
2023/10/03 08:41:53;;;;;;;7.20;2.70;;;26.20;35.50;;;;;;4974356;28;20430;-51
2023/10/03 08:44:23;;;;;;;5.97;4.83;;;26.30;34.70;;;;;;4945021;28;20980;-52
2023/10/03 08:46:50;;;;;;;9.37;2.70;;;26.60;34.60;;;;;;4974133;28;20961;-55
2023/10/03 08:49:19;;;;;;;13.27;3.07;;;26.70;34.60;;;;;;4973971;28;20427;-55
2023/10/03 08:51:46;;;;;;;10.83;3.50;;;26.90;35.00;;;;;;4973926;28;20948;-50
2023/10/03 08:54:12;;;;;;;21.03;3.67;;;26.90;34.70;;;;;;4974032;28;20408;-51
2023/10/03 08:56:41;;;;;;;13.10;4.10;;;27.10;34.90;;;;;;4973961;28;20403;-54
2023/10/03 08:59:09;;;;;;;10.70;2.97;;;27.20;34.00;;;;;;4974156;28;20474;-52
2023/10/03 09:01:38;;;;;;;13.90;5.13;;;27.30;34.70;;;;;;4974194;28;20435;-54
2023/10/03 09:04:11;;;;;;;10.17;3.43;;;27.50;33.30;;;;;;4973649;28;20443;-51
2023/10/03 09:06:38;;;;;;;20.90;4.70;;;27.60;33.50;;;;;;4973785;28;20443;-53
2023/10/03 09:09:08;;;;;;;13.97;3.67;;;27.70;33.80;;;;;;4973802;28;20887;-55
2023/10/03 09:11:37;;;;;;;11.77;2.80;;;27.90;33.60;;;;;;4973603;28;20411;-51
2023/10/03 09:14:06;;;;;;;15.40;2.73;;;28.00;33.60;;;;;;4973501;28;20478;-52
2023/10/03 09:16:39;;;;;;;20.93;3.80;;;28.20;32.90;;;;;;4973505;28;21021;-54
2023/10/03 09:19:06;;;;;;;19.10;3.43;;;28.30;32.90;;;;;;4973595;28;20474;-52
2023/10/03 09:21:33;;;;;;;17.10;4.33;;;;;;;;;;4973541;28;20399;-52
2023/10/03 09:24:20;;;;;;;9.67;3.60;;;28.60;31.70;;;;;;4973466;28;20407;-55
2023/10/03 09:26:47;;;;;;;5.40;2.13;;;28.70;32.10;;;;;;4973687;28;20457;-52
2023/10/03 09:29:18;;;;;;;7.90;3.40;;;28.70;32.50;;;;;;4973303;28;20435;-53
2023/10/03 09:31:48;;;;;;;8.00;3.20;;;28.90;32.80;;;;;;4973571;28;20779;-54
2023/10/03 09:34:17;;;;;;;4.70;2.20;;;28.90;32.50;;;;;;4973395;28;20416;-52
2023/10/03 09:36:43;;;;;;;3.67;2.37;;;29.00;32.80;;;;;;4973402;28;20444;-52
2023/10/03 09:39:21;;;;;;;5.20;2.80;;;29.00;31.70;;;;;;4973126;28;20924;-52
2023/10/03 09:41:57;;;;;;;4.70;3.43;;;29.10;31.70;;;;;;4973186;28;20408;-51
2023/10/03 09:44:32;;;;;;;6.03;3.40;;;29.10;31.30;;;;;;4973247;28;20404;-55
2023/10/03 09:47:04;;;;;;;6.70;2.20;;;29.20;30.40;;;;;;4973270;28;20408;-51
2023/10/03 09:49:38;;;;;;;3.67;1.77;;;29.30;30.80;;;;;;4973143;28;20521;-54
2023/10/03 09:52:25;;;;;;;3.37;1.60;;;29.50;30.60;;;;;;4973069;28;20495;-51
2023/10/03 09:54:58;;;;;;;6.97;2.73;;;29.60;31.20;;;;;;4973216;28;20439;-53
2023/10/03 09:57:28;;;;;;;3.77;2.13;;;29.70;30.40;;;;;;4973138;28;20414;-51
2023/10/03 09:59:55;;;;;;;2.90;1.67;;;29.80;30.80;;;;;;4973213;28;20414;-54
2023/10/03 10:02:31;;;;;;;3.30;1.93;;;29.70;30.90;;;;;;4972937;28;20414;-52
2023/10/03 10:05:19;;;;;;;5.20;2.30;;;29.70;30.40;;;;;;4972999;28;20407;-50
2023/10/03 10:08:06;;;;;;;3.57;2.30;;;29.80;30.50;;;;;;4973064;28;20852;-54
2023/10/03 10:10:35;;;;;;;1.70;1.00;;;29.80;30.20;;;;;;4973104;28;20418;-52
2023/10/03 10:13:12;;;;;;;2.60;1.70;;;29.80;29.40;;;;;;4972756;28;20404;-52
2023/10/03 10:16:15;;;;;;;3.50;1.60;;;29.80;28.80;;;;;;4973193;28;20422;-53
2023/10/03 10:18:44;;;;;;;3.90;2.60;;;29.80;27.10;;;;;;4972809;28;20493;-51
2023/10/03 10:21:32;;;;;;;3.77;2.67;;;29.80;28.70;;;;;;4972783;28;20403;-52
2023/10/03 10:24:15;;;;;;;2.33;1.43;;;29.90;28.60;;;;;;4972805;28;20419;-52
2023/10/03 10:26:42;;;;;;;4.60;1.93;;;30.00;28.60;;;;;;4972859;28;20432;-55
2023/10/03 10:29:09;;;;;;;3.37;2.13;;;30.00;28.60;;;;;;4972777;28;20486;-54
2023/10/03 10:31:44;;;;;;;8.47;2.80;;;30.10;27.50;;;;;;4972691;28;20514;-52
2023/10/03 10:34:21;;;;;;;12.73;2.70;;;30.10;28.10;;;;;;4972876;28;20445;-53
2023/10/03 10:36:54;;;;;;;11.83;2.50;;;30.00;28.40;;;;;;4972876;28;20510;-55
2023/10/03 10:39:26;;;;;;;18.83;2.97;;;30.00;28.30;;;;;;4972581;28;20502;-52
2023/10/03 10:42:10;;;;;;;3.37;1.90;;;30.00;28.40;;;;;;4972644;28;20894;-52
2023/10/03 10:44:38;;;;;;;11.40;3.83;;;30.00;28.80;;;;;;4972483;28;20885;-51
2023/10/03 10:47:05;;;;;;;12.03;2.80;;;30.00;29.40;;;;;;4972643;28;20936;-53
2023/10/03 10:49:31;;;;;;;9.23;2.70;;;30.00;29.50;;;;;;4972629;28;20420;-52
2023/10/03 10:52:09;;;;;;;15.37;2.63;;;30.10;28.30;;;;;;4972504;28;20412;-51
2023/10/03 10:54:38;;;;;;;22.77;4.70;;;30.10;29.20;;;;;;4973209;28;21109;-54
2023/10/03 10:57:05;;;;;;;15.80;4.40;;;;;;;;;;4976029;28;21060;-52
2023/10/03 10:59:35;;;;;;;12.70;2.80;;;29.90;27.90;;;;;;4975944;28;20460;-55
2023/10/03 11:02:02;;;;;;;19.67;3.47;;;;;;;;;;4975955;28;20409;-52
2023/10/03 11:04:33;;;;;;;18.77;3.10;;;29.70;28.50;;;;;;4975859;28;20540;-49
2023/10/03 11:06:59;;;;;;;21.90;3.13;;;;;;;;;;4975951;28;20498;-52
2023/10/03 11:09:25;;;;;;;26.20;3.87;;;29.50;29.30;;;;;;4975862;28;20430;-52
2023/10/03 11:11:52;;;;;;;22.23;4.57;;;;;;;;;;4975985;28;20412;-52
2023/10/03 11:14:31;;;;;;;11.83;2.30;;;;;;;;;;4975654;28;20411;-54
2023/10/03 11:16:58;;;;;;;20.57;2.43;;;;;;;;;;4975756;28;20925;-52
2023/10/03 11:19:25;;;;;;;19.20;2.50;;;29.30;29.50;;;;;;4975503;28;20460;-50
2023/10/03 11:21:52;;;;;;;3.60;2.10;;;29.30;30.00;;;;;;4975665;28;20407;-53
2023/10/03 11:24:20;;;;;;;10.10;3.60;;;29.30;30.20;;;;;;4975451;28;20416;-51
2023/10/03 11:26:50;;;;;;;6.00;3.03;;;29.30;30.30;;;;;;4975538;28;21049;-52
2023/10/03 11:29:34;;;;;;;5.73;3.87;;;29.30;30.80;;;;;;4975439;28;20552;-52
2023/10/03 11:32:01;;;;;;;6.87;2.90;;;29.40;30.30;;;;;;4975402;28;20414;-50
2023/10/03 11:34:40;;;;;;;6.37;2.90;;;29.40;30.60;;;;;;4975554;28;20412;-54
2023/10/03 11:37:05;;;;;;;5.20;2.43;;;29.40;31.70;;;;;;4975430;28;20406;-53
2023/10/03 11:39:38;;;;;;;7.20;3.30;;;29.40;31.30;;;;;;4975288;28;20467;-52
2023/10/03 11:42:08;;;;;;;7.10;3.07;;;29.50;31.50;;;;;;4975253;28;20173;-54
2023/10/03 11:44:36;;;;;;;4.60;2.27;;;29.50;30.90;;;;;;4975038;28;20786;-50
2023/10/03 11:47:03;;;;;;;4.73;2.30;;;29.60;31.00;;;;;;4975433;28;20407;-50
2023/10/03 11:49:29;;;;;;;4.73;3.13;;;29.60;31.30;;;;;;4974144;28;20431;-53
2023/10/03 11:51:56;;;;;;;4.10;2.80;;;29.60;31.10;;;;;;4975267;28;20434;-53
2023/10/03 11:54:22;;;;;;;3.10;2.10;;;29.70;31.10;;;;;;4975031;28;20270;-52
2023/10/03 11:56:48;;;;;;;3.00;2.10;;;29.70;31.50;;;;;;4975069;28;20443;-54
2023/10/03 11:59:15;;;;;;;4.70;1.97;;;29.80;31.60;;;;;;4974733;28;20210;-50
2023/10/03 12:01:50;;;;;;;4.37;2.63;;;29.80;31.00;;;;;;4974935;28;20468;-53
2023/10/03 12:04:18;;;;;;;3.03;1.40;;;29.90;31.10;;;;;;4974952;28;20407;-49
2023/10/03 12:06:43;;;;;;;5.17;2.70;;;29.90;31.00;;;;;;4973795;28;21030;-51
2023/10/03 12:09:09;;;;;;;6.20;2.67;;;29.90;31.30;;;;;;4974741;28;20464;-53
2023/10/03 12:11:41;;;;;;;5.03;2.80;;;29.90;30.60;;;;;;4974648;28;20227;-50
2023/10/03 12:14:09;;;;;;;5.00;2.70;;;30.00;31.70;;;;;;4974546;28;20415;-54
2023/10/03 12:16:38;;;;;;;5.53;2.00;;;30.10;31.80;;;;;;4974836;28;20419;-54
2023/10/03 12:19:05;;;;;;;5.40;2.77;;;30.10;32.00;;;;;;4974641;28;20498;-51
2023/10/03 12:21:30;;;;;;;3.10;1.90;;;30.10;32.00;;;;;;4974534;28;20435;-52
2023/10/03 12:23:58;;;;;;;4.97;1.77;;;30.20;30.00;;;;;;4974401;28;20417;-51
2023/10/03 12:26:24;;;;;;;3.00;2.03;;;30.30;30.60;;;;;;4974566;28;20506;-50
2023/10/03 12:28:52;;;;;;;2.80;1.20;;;30.40;29.80;;;;;;4974372;28;20934;-53
2023/10/03 12:31:25;;;;;;;3.83;2.03;;;30.60;30.40;;;;;;4974456;28;20428;-51
2023/10/03 12:33:51;;;;;;;2.20;1.50;;;30.60;29.60;;;;;;4974253;28;20480;-51
2023/10/03 12:36:17;;;;;;;7.60;1.70;;;30.70;30.30;;;;;;4974296;28;20419;-50
2023/10/03 12:38:43;;;;;;;3.43;2.17;;;30.60;29.00;;;;;;4974044;28;20453;-53
2023/10/03 12:41:09;;;;;;;3.63;1.63;;;30.70;28.80;;;;;;4974388;28;20183;-50
2023/10/03 12:43:37;;;;;;;3.63;1.80;;;30.60;30.10;;;;;;4974207;28;20180;-51
2023/10/03 12:46:04;;;;;;;3.50;2.00;;;30.70;29.70;;;;;;4974390;28;20415;-54
2023/10/03 12:48:31;;;;;;;5.80;2.17;;;30.70;30.10;;;;;;4974066;28;20479;-51
2023/10/03 12:50:56;;;;;;;4.03;1.97;;;30.80;30.20;;;;;;4973996;28;20433;-50
2023/10/03 12:53:23;;;;;;;5.43;2.37;;;30.80;28.80;;;;;;4973832;28;20522;-53
2023/10/03 12:55:49;;;;;;;5.70;2.47;;;30.80;29.40;;;;;;4974010;28;20418;-51
2023/10/03 12:58:19;;;;;;;5.50;2.57;;;30.70;29.00;;;;;;4973907;28;20454;-49
2023/10/03 13:00:47;;;;;;;3.50;1.50;;;30.70;28.50;;;;;;4974026;28;20419;-52
2023/10/03 13:03:12;;;;;;;4.10;2.33;;;30.70;28.80;;;;;;4973764;28;20415;-49